createdAt,value
2019-05-02T00:00:15.023Z,0.00
2019-05-02T00:01:15.388Z,0.00
2019-05-02T00:02:15.303Z,0.00
2019-05-02T00:03:15.551Z,0.00
2019-05-02T00:04:19.999Z,0.00
2019-05-02T00:05:16.438Z,0.00
2019-05-02T00:06:16.219Z,0.00
2019-05-02T00:07:20.202Z,0.00
2019-05-02T00:08:16.958Z,0.00
2019-05-02T00:09:17.352Z,0.00
2019-05-02T00:10:19.925Z,0.00
2019-05-02T00:11:17.940Z,0.00
2019-05-02T00:12:18.354Z,0.00
2019-05-02T00:13:18.909Z,0.00
2019-05-02T00:14:18.989Z,0.00
2019-05-02T00:15:18.729Z,0.00
2019-05-02T00:16:18.990Z,0.00
2019-05-02T00:17:20.252Z,0.00
2019-05-02T00:18:19.725Z,0.00
2019-05-02T00:19:19.987Z,0.00
2019-05-02T00:20:21.293Z,0.00
2019-05-02T00:21:20.706Z,0.00
2019-05-02T00:22:20.994Z,0.00
2019-05-02T00:23:22.933Z,0.00
2019-05-02T00:24:21.245Z,0.00
2019-05-02T00:25:21.626Z,0.00
2019-05-02T00:26:24.530Z,0.00
2019-05-02T00:27:22.177Z,0.00
2019-05-02T00:28:22.434Z,0.00
2019-05-02T00:29:23.696Z,0.00
2019-05-02T00:30:22.948Z,0.00
2019-05-02T00:31:23.205Z,0.00
2019-05-02T00:32:23.734Z,0.00
2019-05-02T00:33:23.928Z,0.00
2019-05-02T00:34:24.378Z,0.00
2019-05-02T00:35:24.702Z,0.00
2019-05-02T00:36:25.193Z,0.00
2019-05-02T00:37:26.667Z,0.00
2019-05-02T00:38:26.077Z,0.00
2019-05-02T00:39:25.889Z,0.00
2019-05-02T00:40:27.736Z,0.00
2019-05-02T00:41:26.446Z,0.00
2019-05-02T00:42:26.813Z,0.00
2019-05-02T00:43:28.956Z,0.00
2019-05-02T00:44:27.392Z,0.00
2019-05-02T00:45:27.974Z,0.00
2019-05-02T00:46:30.318Z,0.00
2019-05-02T00:47:27.778Z,0.00
2019-05-02T00:48:28.320Z,0.00
2019-05-02T00:49:30.835Z,0.00
2019-05-02T00:50:28.686Z,0.00
2019-05-02T00:51:29.009Z,0.00
2019-05-02T00:52:32.865Z,0.00
2019-05-02T00:53:29.976Z,0.00
2019-05-02T00:54:30.325Z,0.00
2019-05-02T00:55:33.860Z,0.00
2019-05-02T00:56:31.042Z,0.00
2019-05-02T00:57:31.331Z,0.00
2019-05-02T00:58:32.166Z,0.00
2019-05-02T00:59:31.810Z,0.00
2019-05-02T01:00:32.062Z,0.00
2019-05-02T01:01:32.227Z,0.00
2019-05-02T01:02:35.968Z,0.00
2019-05-02T01:03:32.724Z,0.00
2019-05-02T01:04:33.168Z,0.00
2019-05-02T01:05:38.034Z,0.00
2019-05-02T01:06:33.928Z,0.00
2019-05-02T01:07:34.193Z,0.00
2019-05-02T01:08:35.608Z,0.00
2019-05-02T01:09:34.922Z,0.00
2019-05-02T01:10:35.281Z,0.00
2019-05-02T01:11:35.550Z,0.00
2019-05-02T01:12:39.829Z,0.00
2019-05-02T01:13:36.094Z,0.00
2019-05-02T01:14:36.565Z,0.00
2019-05-02T01:15:39.123Z,0.00
2019-05-02T01:17:37.074Z,0.00
2019-05-02T01:18:41.209Z,0.00
2019-05-02T01:19:37.713Z,0.00
2019-05-02T01:20:37.542Z,0.00
2019-05-02T01:21:38.937Z,0.00
2019-05-02T01:22:38.039Z,0.00
2019-05-02T01:23:38.057Z,0.00
2019-05-02T01:24:39.814Z,0.00
2019-05-02T01:25:38.948Z,0.00
2019-05-02T01:26:39.306Z,0.00
2019-05-02T01:27:41.280Z,0.00
2019-05-02T01:28:39.870Z,0.00
2019-05-02T01:29:40.046Z,0.00
2019-05-02T01:30:42.296Z,0.00
2019-05-02T01:31:40.144Z,0.00
2019-05-02T01:32:40.355Z,0.00
2019-05-02T01:33:41.812Z,0.00
2019-05-02T01:34:40.952Z,0.00
2019-05-02T01:35:40.993Z,0.00
2019-05-02T01:36:42.711Z,0.00
2019-05-02T01:37:41.882Z,0.00
2019-05-02T01:38:42.347Z,0.00
2019-05-02T01:39:43.062Z,0.00
2019-05-02T01:40:42.780Z,0.00
2019-05-02T01:41:43.564Z,0.00
2019-05-02T01:42:44.488Z,0.00
2019-05-02T01:43:43.915Z,0.00
2019-05-02T01:44:43.665Z,0.00
2019-05-02T01:45:46.577Z,0.00
2019-05-02T01:46:44.330Z,0.00
2019-05-02T01:47:44.945Z,0.00
2019-05-02T01:48:45.599Z,0.00
2019-05-02T01:49:45.794Z,0.00
2019-05-02T01:50:46.108Z,0.00
2019-05-02T01:51:47.669Z,0.00
2019-05-02T01:52:46.099Z,0.00
2019-05-02T01:53:46.320Z,0.00
2019-05-02T01:54:47.594Z,0.00
2019-05-02T01:55:47.145Z,0.00
2019-05-02T01:56:47.473Z,0.00
2019-05-02T01:57:47.971Z,0.00
2019-05-02T01:58:48.275Z,0.00
2019-05-02T01:59:48.444Z,0.00
2019-05-02T02:00:48.942Z,0.00
2019-05-02T02:01:53.155Z,0.00
2019-05-02T02:02:49.810Z,0.00
2019-05-02T02:03:50.052Z,0.00
2019-05-02T02:04:52.224Z,0.00
2019-05-02T02:05:50.748Z,0.00
2019-05-02T02:06:50.862Z,0.00
2019-05-02T02:07:55.554Z,0.00
2019-05-02T02:08:51.439Z,0.00
2019-05-02T02:09:51.762Z,0.00
2019-05-02T02:10:56.462Z,0.00
2019-05-02T02:11:52.460Z,0.00
2019-05-02T02:13:03.623Z,0.00
2019-05-02T02:13:53.343Z,0.00
2019-05-02T02:14:55.444Z,0.00
2019-05-02T02:15:54.147Z,0.00
2019-05-02T02:16:54.752Z,0.00
2019-05-02T02:17:54.968Z,0.00
2019-05-02T02:18:58.992Z,0.00
2019-05-02T02:19:55.468Z,0.00
2019-05-02T02:20:55.485Z,0.00
2019-05-02T02:21:57.586Z,0.00
2019-05-02T02:22:55.797Z,0.00
2019-05-02T02:23:56.034Z,0.00
2019-05-02T02:25:00.962Z,0.00
2019-05-02T02:25:56.526Z,0.00
2019-05-02T02:26:56.947Z,0.00
2019-05-02T02:27:59.651Z,0.00
2019-05-02T02:28:57.891Z,0.00
2019-05-02T02:29:57.895Z,0.00
2019-05-02T02:31:04.829Z,0.00
2019-05-02T02:31:58.227Z,0.00
2019-05-02T02:33:00.857Z,0.00
2019-05-02T02:33:58.942Z,0.00
2019-05-02T02:35:03.387Z,0.00
2019-05-02T02:35:59.406Z,0.00
2019-05-02T02:36:59.172Z,0.00
2019-05-02T02:37:59.671Z,0.00
2019-05-02T02:39:00.309Z,0.00
2019-05-02T02:40:00.140Z,0.00
2019-05-02T02:41:00.602Z,0.00
2019-05-02T02:42:01.068Z,0.00
2019-05-02T02:43:13.055Z,0.00
2019-05-02T02:44:02.894Z,0.00
2019-05-02T02:45:01.914Z,0.00
2019-05-02T02:46:01.932Z,0.00
2019-05-02T02:47:01.795Z,0.00
2019-05-02T02:48:02.692Z,0.00
2019-05-02T02:49:02.593Z,0.00
2019-05-02T02:50:05.146Z,0.00
2019-05-02T02:51:02.787Z,0.00
2019-05-02T02:53:02.849Z,0.00
2019-05-02T02:54:05.463Z,0.00
2019-05-02T02:55:03.050Z,0.00
2019-05-02T02:56:03.828Z,0.00
2019-05-02T02:57:03.323Z,0.00
2019-05-02T02:58:04.908Z,0.00
2019-05-02T02:59:03.626Z,0.00
2019-05-02T03:00:07.899Z,0.00
2019-05-02T03:01:04.099Z,0.00
2019-05-02T03:02:09.946Z,0.00
2019-05-02T03:03:04.209Z,0.00
2019-05-02T03:04:09.441Z,0.00
2019-05-02T03:05:04.215Z,0.00
2019-05-02T03:06:07.598Z,0.00
2019-05-02T03:07:04.903Z,0.00
2019-05-02T03:08:06.929Z,0.00
2019-05-02T03:09:05.602Z,0.00
2019-05-02T03:10:06.747Z,0.00
2019-05-02T03:11:05.963Z,0.00
2019-05-02T03:12:06.228Z,0.00
2019-05-02T03:13:06.304Z,0.00
2019-05-02T03:14:09.278Z,0.00
2019-05-02T03:15:06.602Z,0.00
2019-05-02T03:16:09.133Z,0.00
2019-05-02T03:17:07.159Z,1.00
2019-05-02T03:18:07.738Z,0.00
2019-05-02T03:19:07.936Z,0.00
2019-05-02T03:20:08.068Z,1.00
2019-05-02T03:21:13.253Z,1.00
2019-05-02T03:22:08.728Z,1.00
2019-05-02T03:23:15.281Z,1.00
2019-05-02T03:24:09.121Z,2.00
2019-05-02T03:25:09.693Z,2.00
2019-05-02T03:26:14.770Z,2.00
2019-05-02T03:27:09.963Z,3.00
2019-05-02T03:28:17.718Z,3.00
2019-05-02T03:29:10.694Z,3.00
2019-05-02T03:30:29.734Z,4.00
2019-05-02T03:31:22.909Z,4.00
2019-05-02T03:32:16.820Z,6.00
2019-05-02T03:33:12.478Z,7.00
2019-05-02T03:34:11.950Z,8.00
2019-05-02T03:35:18.359Z,9.00
2019-05-02T03:36:26.868Z,10.00
2019-05-02T03:37:13.987Z,12.00
2019-05-02T03:38:13.063Z,15.00
2019-05-02T03:39:15.427Z,16.00
2019-05-02T03:40:13.639Z,19.00
2019-05-02T03:41:20.746Z,21.00
2019-05-02T03:42:14.397Z,25.00
2019-05-02T03:43:18.987Z,29.00
2019-05-02T03:44:25.163Z,33.00
2019-05-02T03:45:16.081Z,38.00
2019-05-02T03:46:20.537Z,43.00
2019-05-02T03:47:16.041Z,48.00
2019-05-02T03:48:18.157Z,53.00
2019-05-02T03:49:16.766Z,59.00
2019-05-02T03:50:16.966Z,65.00
2019-05-02T03:51:21.699Z,73.00
2019-05-02T03:52:17.349Z,83.00
2019-05-02T03:53:25.071Z,95.00
2019-05-02T03:54:19.993Z,107.00
2019-05-02T03:55:23.749Z,123.00
2019-05-02T03:56:18.627Z,139.00
2019-05-02T03:57:24.689Z,157.00
2019-05-02T03:58:19.070Z,175.00
2019-05-02T03:59:19.523Z,195.00
2019-05-02T04:00:21.915Z,216.00
2019-05-02T04:01:20.497Z,239.00
2019-05-02T04:02:21.815Z,261.00
2019-05-02T04:03:20.810Z,286.00
2019-05-02T04:04:22.708Z,310.00
2019-05-02T04:05:21.473Z,335.00
2019-05-02T04:06:23.726Z,361.00
2019-05-02T04:07:21.755Z,386.00
2019-05-02T04:08:22.735Z,412.00
2019-05-02T04:09:22.361Z,439.00
2019-05-02T04:10:22.417Z,466.00
2019-05-02T04:11:22.734Z,495.00
2019-05-02T04:12:22.828Z,522.00
2019-05-02T04:13:23.061Z,551.00
2019-05-02T04:14:36.778Z,581.00
2019-05-02T04:15:28.808Z,612.00
2019-05-02T04:16:24.112Z,642.00
2019-05-02T04:17:29.085Z,673.00
2019-05-02T04:18:24.392Z,705.00
2019-05-02T04:19:28.703Z,736.00
2019-05-02T04:20:25.253Z,773.00
2019-05-02T04:21:26.507Z,813.00
2019-05-02T04:22:25.581Z,851.00
2019-05-02T04:23:27.623Z,884.00
2019-05-02T04:24:29.097Z,923.00
2019-05-02T04:25:27.841Z,960.00
2019-05-02T04:26:26.948Z,999.00
2019-05-02T04:27:27.933Z,1047.00
2019-05-02T04:28:27.582Z,1084.00
2019-05-02T04:29:31.293Z,1129.00
2019-05-02T04:30:28.144Z,1190.00
2019-05-02T04:31:31.407Z,1257.00
2019-05-02T04:32:28.178Z,1334.00
2019-05-02T04:33:29.073Z,1400.00
2019-05-02T04:34:29.123Z,1460.00
2019-05-02T04:35:34.868Z,1533.00
2019-05-02T04:36:29.358Z,1598.00
2019-05-02T04:37:34.522Z,1676.00
2019-05-02T04:38:39.034Z,1742.00
2019-05-02T04:39:30.156Z,1782.00
2019-05-02T04:40:35.149Z,1850.00
2019-05-02T04:41:34.101Z,1909.00
2019-05-02T04:42:31.179Z,1986.00
2019-05-02T04:43:31.050Z,2044.00
2019-05-02T04:44:44.170Z,2109.00
2019-05-02T04:45:50.955Z,2143.00
2019-05-02T04:46:32.004Z,2154.00
2019-05-02T04:47:32.419Z,2216.00
2019-05-02T04:48:34.638Z,2260.00
2019-05-02T04:49:35.722Z,2284.00
2019-05-02T04:50:33.679Z,2354.00
2019-05-02T04:51:33.702Z,2447.00
2019-05-02T04:52:40.781Z,2518.00
2019-05-02T04:53:41.057Z,2525.00
2019-05-02T04:54:34.322Z,2501.00
2019-05-02T04:55:34.561Z,2522.00
2019-05-02T04:56:39.721Z,2460.00
2019-05-02T04:57:38.125Z,2406.00
2019-05-02T04:58:39.710Z,2422.00
2019-05-02T04:59:35.648Z,2461.00
2019-05-02T05:00:35.610Z,2509.00
2019-05-02T05:01:45.400Z,2587.00
2019-05-02T05:02:39.908Z,2697.00
2019-05-02T05:03:37.684Z,2769.00
2019-05-02T05:04:41.899Z,2853.00
2019-05-02T05:05:40.240Z,2892.00
2019-05-02T05:06:38.065Z,2913.00
2019-05-02T05:07:41.158Z,2954.00
2019-05-02T05:08:38.790Z,3052.00
2019-05-02T05:09:39.864Z,3161.00
2019-05-02T05:10:41.510Z,3296.00
2019-05-02T05:11:38.702Z,3460.00
2019-05-02T05:12:41.757Z,3600.00
2019-05-02T05:13:39.459Z,3723.00
2019-05-02T05:14:43.177Z,3829.00
2019-05-02T05:15:48.520Z,3927.00
2019-05-02T05:16:45.381Z,4013.00
2019-05-02T05:17:41.214Z,4092.00
2019-05-02T05:18:43.896Z,4174.00
2019-05-02T05:19:41.989Z,4269.00
2019-05-02T05:20:45.985Z,4444.00
2019-05-02T05:21:42.221Z,4531.00
2019-05-02T05:22:44.581Z,4661.00
2019-05-02T05:23:42.390Z,4694.00
2019-05-02T05:24:42.762Z,4782.00
2019-05-02T05:25:43.363Z,4864.00
2019-05-02T05:26:43.156Z,4950.00
2019-05-02T05:27:43.630Z,5042.00
2019-05-02T05:28:44.531Z,5143.00
2019-05-02T05:29:48.025Z,5242.00
2019-05-02T05:30:46.845Z,5344.00
2019-05-02T05:31:45.455Z,5454.00
2019-05-02T05:32:47.850Z,5564.00
2019-05-02T05:33:47.865Z,5684.00
2019-05-02T05:34:47.800Z,5828.00
2019-05-02T05:35:48.838Z,5954.00
2019-05-02T05:36:48.182Z,6051.00
2019-05-02T05:37:51.214Z,6160.00
2019-05-02T05:38:47.928Z,6137.00
2019-05-02T05:39:52.460Z,6167.00
2019-05-02T05:40:50.218Z,6215.00
2019-05-02T05:41:52.353Z,6235.00
2019-05-02T05:42:48.926Z,6215.00
2019-05-02T05:43:53.420Z,6198.00
2019-05-02T05:44:49.261Z,6208.00
2019-05-02T05:45:56.048Z,6247.00
2019-05-02T05:46:49.993Z,6315.00
2019-05-02T05:47:52.455Z,6393.00
2019-05-02T05:48:50.826Z,6573.00
2019-05-02T05:49:52.265Z,6624.00
2019-05-02T05:50:51.199Z,6676.00
2019-05-02T05:51:54.524Z,6728.00
2019-05-02T05:52:52.042Z,6796.00
2019-05-02T05:53:52.277Z,6893.00
2019-05-02T05:54:52.094Z,7028.00
2019-05-02T05:55:53.556Z,7119.00
2019-05-02T05:56:52.896Z,7199.00
2019-05-02T05:57:59.508Z,7273.00
2019-05-02T05:58:53.273Z,7332.00
2019-05-02T05:59:53.384Z,7377.00
2019-05-02T06:00:55.689Z,7452.00
2019-05-02T06:01:54.480Z,7528.00
2019-05-02T06:03:01.190Z,7609.00
2019-05-02T06:03:54.741Z,7656.00
2019-05-02T06:04:59.995Z,7708.00
2019-05-02T06:05:55.237Z,7792.00
2019-05-02T06:06:59.567Z,7887.00
2019-05-02T06:07:57.450Z,7992.00
2019-05-02T06:08:55.808Z,8095.00
2019-05-02T06:09:55.784Z,8176.00
2019-05-02T06:10:56.091Z,8279.00
2019-05-02T06:11:56.682Z,8393.00
2019-05-02T06:12:56.780Z,8483.00
2019-05-02T06:13:57.078Z,8537.00
2019-05-02T06:15:01.655Z,8613.00
2019-05-02T06:16:02.716Z,8738.00
2019-05-02T06:16:58.003Z,8870.00
2019-05-02T06:18:00.088Z,8938.00
2019-05-02T06:18:58.886Z,8962.00
2019-05-02T06:19:59.319Z,8990.00
2019-05-02T06:21:03.363Z,9023.00
2019-05-02T06:21:59.979Z,9056.00
2019-05-02T06:23:01.331Z,9143.00
2019-05-02T06:24:01.062Z,9257.00
2019-05-02T06:25:01.149Z,9353.00
2019-05-02T06:26:00.998Z,9426.00
2019-05-02T06:27:01.543Z,9492.00
2019-05-02T06:28:05.279Z,9559.00
2019-05-02T06:29:01.805Z,9614.00
2019-05-02T06:30:02.373Z,9686.00
2019-05-02T06:31:07.179Z,9769.00
2019-05-02T06:32:02.561Z,9798.00
2019-05-02T06:33:02.621Z,9836.00
2019-05-02T06:34:07.109Z,9881.00
2019-05-02T06:35:02.722Z,9927.00
2019-05-02T06:36:02.951Z,9961.00
2019-05-02T06:37:03.027Z,9992.00
2019-05-02T06:38:03.136Z,10099.00
2019-05-02T06:39:03.245Z,10245.00
2019-05-02T06:41:03.478Z,10479.00
2019-05-02T06:42:04.277Z,10606.00
2019-05-02T06:43:09.260Z,10729.00
2019-05-02T06:44:04.209Z,10880.00
2019-05-02T06:45:04.202Z,11024.00
2019-05-02T06:46:15.365Z,11160.00
2019-05-02T06:47:05.714Z,11303.00
2019-05-02T06:48:05.149Z,11447.00
2019-05-02T06:49:05.464Z,11593.00
2019-05-02T06:50:05.722Z,11741.00
2019-05-02T06:51:10.936Z,11828.00
2019-05-02T06:52:06.312Z,11896.00
2019-05-02T06:53:09.762Z,11970.00
2019-05-02T06:54:07.127Z,12066.00
2019-05-02T06:55:07.391Z,12129.00
2019-05-02T06:56:12.302Z,12118.00
2019-05-02T06:57:07.942Z,12104.00
2019-05-02T06:58:08.281Z,12176.00
2019-05-02T06:59:08.086Z,12346.00
2019-05-02T07:00:08.566Z,12544.00
2019-05-02T07:01:08.931Z,12796.00
2019-05-02T07:02:08.906Z,13056.00
2019-05-02T07:03:10.095Z,13049.00
2019-05-02T07:04:09.798Z,13112.00
2019-05-02T07:05:10.023Z,13176.00
2019-05-02T07:06:10.494Z,13156.00
2019-05-02T07:07:13.115Z,13132.00
2019-05-02T07:08:13.547Z,13407.00
2019-05-02T07:09:11.850Z,13544.00
2019-05-02T07:10:11.577Z,13432.00
2019-05-02T07:11:11.833Z,13306.00
2019-05-02T07:12:14.681Z,13409.00
2019-05-02T07:13:15.073Z,13732.00
2019-05-02T07:14:14.006Z,13913.00
2019-05-02T07:15:13.494Z,13956.00
2019-05-02T07:16:29.941Z,13924.00
2019-05-02T07:17:13.434Z,13850.00
2019-05-02T07:18:13.488Z,13968.00
2019-05-02T07:19:16.392Z,14027.00
2019-05-02T07:20:13.933Z,14104.00
2019-05-02T07:21:17.357Z,14163.00
2019-05-02T07:22:14.017Z,14076.00
2019-05-02T07:23:16.198Z,14072.00
2019-05-02T07:24:14.761Z,14271.00
2019-05-02T07:25:15.354Z,14302.00
2019-05-02T07:26:20.874Z,14279.00
2019-05-02T07:27:15.990Z,14796.00
2019-05-02T07:28:16.248Z,14959.00
2019-05-02T07:29:17.152Z,15068.00
2019-05-02T07:30:17.289Z,15105.00
2019-05-02T07:31:17.294Z,15159.00
2019-05-02T07:32:19.179Z,15092.00
2019-05-02T07:33:18.055Z,15049.00
2019-05-02T07:34:18.349Z,14933.00
2019-05-02T07:35:19.404Z,14861.00
2019-05-02T07:36:19.237Z,14953.00
2019-05-02T07:37:19.691Z,15258.00
2019-05-02T07:38:25.073Z,15405.00
2019-05-02T07:39:20.269Z,15534.00
2019-05-02T07:40:20.430Z,15570.00
2019-05-02T07:41:24.086Z,15637.00
2019-05-02T07:42:21.196Z,15887.00
2019-05-02T07:43:22.406Z,16060.00
2019-05-02T07:44:21.958Z,16040.00
2019-05-02T07:45:22.185Z,16022.00
2019-05-02T07:46:22.624Z,15930.00
2019-05-02T07:47:23.132Z,15923.00
2019-05-02T07:48:23.108Z,16119.00
2019-05-02T07:49:26.620Z,16279.00
2019-05-02T07:50:23.775Z,16370.00
2019-05-02T07:51:24.237Z,16379.00
2019-05-02T07:52:24.552Z,16366.00
2019-05-02T07:53:25.006Z,16607.00
2019-05-02T07:54:26.790Z,16760.00
2019-05-02T07:55:25.584Z,16761.00
2019-05-02T07:56:26.063Z,16714.00
2019-05-02T07:57:30.526Z,16827.00
2019-05-02T07:58:26.794Z,16922.00
2019-05-02T07:59:26.907Z,17078.00
2019-05-02T08:00:27.156Z,16920.00
2019-05-02T08:01:27.459Z,15445.00
2019-05-02T08:02:27.988Z,17062.00
2019-05-02T08:03:29.329Z,16936.00
2019-05-02T08:04:28.156Z,16899.00
2019-05-02T08:05:28.447Z,16777.00
2019-05-02T08:06:35.335Z,16736.00
2019-05-02T08:07:34.214Z,16804.00
2019-05-02T08:08:31.479Z,16836.00
2019-05-02T08:09:30.086Z,16778.00
2019-05-02T08:10:30.291Z,16769.00
2019-05-02T08:11:32.247Z,17070.00
2019-05-02T08:12:30.956Z,17437.00
2019-05-02T08:13:31.604Z,17458.00
2019-05-02T08:14:34.473Z,17870.00
2019-05-02T08:15:31.942Z,18386.00
2019-05-02T08:16:32.368Z,65536.00
2019-05-02T08:17:32.797Z,65536.00
2019-05-02T08:18:33.284Z,65536.00
2019-05-02T08:19:37.464Z,18065.00
2019-05-02T08:20:33.722Z,16963.00
2019-05-02T08:21:34.235Z,16578.00
2019-05-02T08:22:34.323Z,17583.00
2019-05-02T08:23:34.995Z,17200.00
2019-05-02T08:24:37.958Z,17386.00
2019-05-02T08:25:35.739Z,65536.00
2019-05-02T08:26:36.122Z,17569.00
2019-05-02T08:27:36.702Z,17118.00
2019-05-02T08:28:36.751Z,17283.00
2019-05-02T08:29:37.002Z,65536.00
2019-05-02T08:30:40.540Z,65536.00
2019-05-02T08:31:36.896Z,65536.00
2019-05-02T08:32:37.345Z,65536.00
2019-05-02T08:33:37.771Z,65536.00
2019-05-02T08:34:38.170Z,65536.00
2019-05-02T08:35:38.605Z,65536.00
2019-05-02T08:36:38.843Z,65536.00
2019-05-02T08:37:40.948Z,65536.00
2019-05-02T08:38:39.739Z,65536.00
2019-05-02T08:39:40.236Z,65536.00
2019-05-02T08:40:42.147Z,65536.00
2019-05-02T08:41:40.870Z,65536.00
2019-05-02T08:42:41.235Z,65536.00
2019-05-02T08:43:44.950Z,65536.00
2019-05-02T08:44:50.875Z,65536.00
2019-05-02T08:45:42.008Z,65536.00
2019-05-02T08:46:46.120Z,65536.00
2019-05-02T08:47:42.714Z,65536.00
2019-05-02T08:48:43.779Z,65536.00
2019-05-02T08:49:43.327Z,65536.00
2019-05-02T08:50:43.801Z,65536.00
2019-05-02T08:51:44.047Z,65536.00
2019-05-02T08:52:44.375Z,65536.00
2019-05-02T08:53:44.818Z,65536.00
2019-05-02T08:54:45.050Z,65536.00
2019-05-02T08:55:46.698Z,65536.00
2019-05-02T08:56:45.984Z,65536.00
2019-05-02T08:57:45.820Z,65536.00
2019-05-02T08:58:49.811Z,65536.00
2019-05-02T08:59:46.786Z,65536.00
2019-05-02T09:00:47.636Z,65536.00
2019-05-02T09:01:49.397Z,65536.00
2019-05-02T09:02:47.705Z,65536.00
2019-05-02T09:03:55.227Z,65536.00
2019-05-02T09:04:58.313Z,65536.00
2019-05-02T09:05:49.015Z,65536.00
2019-05-02T09:06:53.236Z,65536.00
2019-05-02T09:07:49.646Z,65536.00
2019-05-02T09:08:51.429Z,65536.00
2019-05-02T09:09:50.397Z,65536.00
2019-05-02T09:10:50.640Z,65536.00
2019-05-02T09:12:04.838Z,65536.00
2019-05-02T09:12:52.076Z,65536.00
2019-05-02T09:13:52.586Z,65536.00
2019-05-02T09:14:52.152Z,65536.00
2019-05-02T09:15:54.163Z,65536.00
2019-05-02T09:16:52.481Z,65536.00
2019-05-02T09:17:56.443Z,65536.00
2019-05-02T09:18:54.205Z,65536.00
2019-05-02T09:20:02.413Z,65536.00
2019-05-02T09:20:56.553Z,65536.00
2019-05-02T09:21:54.604Z,65536.00
2019-05-02T09:22:56.051Z,65536.00
2019-05-02T09:23:55.558Z,65536.00
2019-05-02T09:24:55.427Z,65536.00
2019-05-02T09:25:55.680Z,65536.00
2019-05-02T09:26:55.959Z,65536.00
2019-05-02T09:27:56.195Z,65536.00
2019-05-02T09:29:01.704Z,65536.00
2019-05-02T09:29:56.747Z,65536.00
2019-05-02T09:30:57.259Z,65536.00
2019-05-02T09:31:57.106Z,65536.00
2019-05-02T09:33:02.833Z,65536.00
2019-05-02T09:33:57.623Z,65536.00
2019-05-02T09:35:02.360Z,65536.00
2019-05-02T09:35:57.947Z,65536.00
2019-05-02T09:36:58.468Z,65536.00
2019-05-02T09:37:58.221Z,65536.00
2019-05-02T09:38:58.696Z,65536.00
2019-05-02T09:39:59.133Z,65536.00
2019-05-02T09:40:59.392Z,65536.00
2019-05-02T09:42:02.026Z,65536.00
2019-05-02T09:43:02.756Z,65536.00
2019-05-02T09:44:00.387Z,65536.00
2019-05-02T09:45:02.961Z,65536.00
2019-05-02T09:46:02.549Z,65536.00
2019-05-02T09:47:02.347Z,65536.00
2019-05-02T09:48:05.187Z,65536.00
2019-05-02T09:49:02.468Z,65536.00
2019-05-02T09:50:02.783Z,65536.00
2019-05-02T09:51:04.607Z,65536.00
2019-05-02T09:52:03.391Z,65536.00
2019-05-02T09:53:02.015Z,65536.00
2019-05-02T09:54:06.230Z,65536.00
2019-05-02T09:55:02.816Z,65536.00
2019-05-02T09:56:02.348Z,65536.00
2019-05-02T09:57:02.866Z,65536.00
2019-05-02T09:58:02.824Z,65536.00
2019-05-02T09:59:22.756Z,65536.00
2019-05-02T10:00:02.604Z,65536.00
2019-05-02T10:01:03.053Z,65536.00
2019-05-02T10:02:03.312Z,65536.00
2019-05-02T10:03:03.270Z,65536.00
2019-05-02T10:04:03.851Z,65536.00
2019-05-02T10:05:03.898Z,65536.00
2019-05-02T10:06:03.967Z,65536.00
2019-05-02T10:07:03.998Z,65536.00
2019-05-02T10:08:07.323Z,65536.00
2019-05-02T10:09:04.423Z,65536.00
2019-05-02T10:10:06.566Z,65536.00
2019-05-02T10:11:04.835Z,65536.00
2019-05-02T10:12:05.314Z,65536.00
2019-05-02T10:13:05.720Z,65536.00
2019-05-02T10:14:06.139Z,65536.00
2019-05-02T10:15:06.397Z,65536.00
2019-05-02T10:16:06.956Z,65536.00
2019-05-02T10:17:07.596Z,65536.00
2019-05-02T10:18:11.378Z,65536.00
2019-05-02T10:19:10.815Z,65536.00
2019-05-02T10:20:08.467Z,65536.00
2019-05-02T10:21:12.745Z,65536.00
2019-05-02T10:22:08.965Z,65536.00
2019-05-02T10:23:14.096Z,65536.00
2019-05-02T10:24:09.330Z,65536.00
2019-05-02T10:25:11.654Z,65536.00
2019-05-02T10:26:12.900Z,65536.00
2019-05-02T10:27:12.507Z,65536.00
2019-05-02T10:28:12.811Z,65536.00
2019-05-02T10:29:12.763Z,65536.00
2019-05-02T10:30:15.393Z,65536.00
2019-05-02T10:31:12.679Z,65536.00
2019-05-02T10:32:13.012Z,65536.00
2019-05-02T10:33:12.263Z,65536.00
2019-05-02T10:34:16.313Z,65536.00
2019-05-02T10:35:13.007Z,65536.00
2019-05-02T10:36:19.550Z,65536.00
2019-05-02T10:37:13.306Z,65536.00
2019-05-02T10:38:15.160Z,65536.00
2019-05-02T10:39:15.864Z,65536.00
2019-05-02T10:40:17.157Z,65536.00
2019-05-02T10:41:13.985Z,65536.00
2019-05-02T10:42:14.504Z,65536.00
2019-05-02T10:43:14.275Z,65536.00
2019-05-02T10:44:14.686Z,65536.00
2019-05-02T10:45:16.707Z,65536.00
2019-05-02T10:46:14.970Z,65536.00
2019-05-02T10:47:15.177Z,65536.00
2019-05-02T10:48:24.764Z,65536.00
2019-05-02T10:49:16.090Z,65536.00
2019-05-02T10:50:16.512Z,65536.00
2019-05-02T10:51:16.313Z,65536.00
2019-05-02T10:52:21.555Z,65536.00
2019-05-02T10:53:17.411Z,65536.00
2019-05-02T10:54:20.532Z,65536.00
2019-05-02T10:55:17.534Z,65536.00
2019-05-02T10:56:17.576Z,65536.00
2019-05-02T10:57:17.563Z,65536.00
2019-05-02T10:58:17.306Z,65536.00
2019-05-02T10:59:17.714Z,65536.00
2019-05-02T11:00:18.401Z,65536.00
2019-05-02T11:01:18.147Z,65536.00
2019-05-02T11:02:18.784Z,65536.00
2019-05-02T11:03:18.582Z,65536.00
2019-05-02T11:04:18.872Z,65536.00
2019-05-02T11:05:22.517Z,65536.00
2019-05-02T11:06:19.125Z,65536.00
2019-05-02T11:07:22.643Z,65536.00
2019-05-02T11:08:19.911Z,65536.00
2019-05-02T11:09:24.586Z,65536.00
2019-05-02T11:10:21.779Z,65536.00
2019-05-02T11:11:21.905Z,65536.00
2019-05-02T11:12:25.591Z,65536.00
2019-05-02T11:13:21.756Z,65536.00
2019-05-02T11:14:22.529Z,65536.00
2019-05-02T11:15:22.096Z,65536.00
2019-05-02T11:16:22.329Z,65536.00
2019-05-02T11:17:22.758Z,65536.00
2019-05-02T11:18:39.198Z,65536.00
2019-05-02T11:19:22.974Z,65536.00
2019-05-02T11:20:23.242Z,65536.00
2019-05-02T11:21:23.555Z,65536.00
2019-05-02T11:23:23.843Z,65536.00
2019-05-02T11:24:23.882Z,65536.00
2019-05-02T11:25:24.179Z,65536.00
2019-05-02T11:26:25.196Z,65536.00
2019-05-02T11:27:25.036Z,65536.00
2019-05-02T11:28:25.705Z,65536.00
2019-05-02T11:29:25.961Z,65536.00
2019-05-02T11:30:26.714Z,65536.00
2019-05-02T11:31:26.518Z,65536.00
2019-05-02T11:32:27.057Z,65536.00
2019-05-02T11:33:27.298Z,65536.00
2019-05-02T11:34:27.783Z,65536.00
2019-05-02T11:35:28.037Z,65536.00
2019-05-02T11:36:28.555Z,65536.00
2019-05-02T11:37:28.296Z,65536.00
2019-05-02T11:38:29.088Z,65536.00
2019-05-02T11:39:37.762Z,65536.00
2019-05-02T11:40:29.077Z,65536.00
2019-05-02T11:41:31.576Z,65536.00
2019-05-02T11:42:29.987Z,65536.00
2019-05-02T11:43:29.971Z,65536.00
2019-05-02T11:44:32.451Z,65536.00
2019-05-02T11:45:32.327Z,65536.00
2019-05-02T11:46:32.837Z,65536.00
2019-05-02T11:47:32.837Z,65536.00
2019-05-02T11:48:32.004Z,65536.00
2019-05-02T11:49:32.127Z,65536.00
2019-05-02T11:50:35.427Z,65536.00
2019-05-02T11:51:32.888Z,65536.00
2019-05-02T11:52:37.215Z,65536.00
2019-05-02T11:53:33.043Z,65536.00
2019-05-02T11:54:33.287Z,65536.00
2019-05-02T11:55:33.672Z,65536.00
2019-05-02T11:56:33.898Z,65536.00
2019-05-02T11:57:34.148Z,65536.00
2019-05-02T11:58:34.537Z,65536.00
2019-05-02T11:59:34.784Z,65536.00
2019-05-02T12:00:35.213Z,65536.00
2019-05-02T12:01:39.519Z,65536.00
2019-05-02T12:02:35.557Z,65536.00
2019-05-02T12:03:37.090Z,65536.00
2019-05-02T12:04:36.460Z,65536.00
2019-05-02T12:05:39.314Z,65536.00
2019-05-02T12:06:37.306Z,65536.00
2019-05-02T12:07:37.703Z,65536.00
2019-05-02T12:08:39.366Z,65536.00
2019-05-02T12:09:38.421Z,65536.00
2019-05-02T12:10:38.667Z,65536.00
2019-05-02T12:11:38.934Z,65536.00
2019-05-02T12:12:39.459Z,65536.00
2019-05-02T12:13:39.263Z,65536.00
2019-05-02T12:14:39.552Z,16177.00
2019-05-02T12:15:42.112Z,16193.00
2019-05-02T12:16:40.149Z,16370.00
2019-05-02T12:17:41.957Z,16294.00
2019-05-02T12:18:41.888Z,16015.00
2019-05-02T12:19:42.594Z,16281.00
2019-05-02T12:20:42.543Z,15679.00
2019-05-02T12:21:42.059Z,13920.00
2019-05-02T12:22:42.052Z,13416.00
2019-05-02T12:23:42.197Z,13821.00